createdAt,value
2016-08-31T00:00:34.466Z,1024.73
2016-08-31T00:01:34.489Z,1024.75
2016-08-31T00:02:34.505Z,1024.76
2016-08-31T00:03:34.535Z,1024.81
2016-08-31T00:04:34.547Z,1024.79
2016-08-31T00:05:34.569Z,1024.82
2016-08-31T00:06:34.585Z,1024.82
2016-08-31T00:07:34.616Z,1024.73
2016-08-31T00:08:34.631Z,1024.81
2016-08-31T00:09:34.658Z,1024.78
2016-08-31T00:10:34.671Z,1024.78
2016-08-31T00:11:34.693Z,1024.8
2016-08-31T00:12:34.713Z,1024.76
2016-08-31T00:13:34.744Z,1024.8
2016-08-31T00:14:34.756Z,1024.79
2016-08-31T00:15:34.777Z,1024.77
2016-08-31T00:16:34.802Z,1024.79
2016-08-31T00:17:34.819Z,1024.76
2016-08-31T00:18:34.840Z,1024.77
2016-08-31T00:19:34.855Z,1024.78
2016-08-31T00:20:34.883Z,1024.76
2016-08-31T00:21:34.908Z,1024.74
2016-08-31T00:22:34.925Z,1024.71
2016-08-31T00:23:34.942Z,1024.74
2016-08-31T00:24:34.962Z,1024.76
2016-08-31T00:25:34.987Z,1024.78
2016-08-31T00:26:35.006Z,1024.79
2016-08-31T00:27:35.034Z,1024.82
2016-08-31T00:28:35.048Z,1024.8
2016-08-31T00:29:35.068Z,1024.77
2016-08-31T00:30:35.086Z,1024.79
2016-08-31T00:31:35.106Z,1024.72
2016-08-31T00:32:35.127Z,1024.76
2016-08-31T00:33:35.156Z,1024.73
2016-08-31T00:34:35.176Z,1024.76
2016-08-31T00:35:35.192Z,1024.77
2016-08-31T00:36:35.207Z,1024.76
2016-08-31T00:37:35.232Z,1024.76
2016-08-31T00:38:35.262Z,1024.76
2016-08-31T00:39:35.272Z,1024.76
2016-08-31T00:40:35.295Z,1024.78
2016-08-31T00:41:35.312Z,1024.83
2016-08-31T00:42:35.338Z,1024.8
2016-08-31T00:43:35.355Z,1024.8
2016-08-31T00:44:35.378Z,1024.78
2016-08-31T00:45:35.393Z,1024.8
2016-08-31T00:46:35.417Z,1024.78
2016-08-31T00:47:35.435Z,1024.73
2016-08-31T00:48:35.454Z,1024.77
2016-08-31T00:49:35.477Z,1024.76
2016-08-31T00:50:35.496Z,1024.77
2016-08-31T00:51:35.518Z,1024.78
2016-08-31T00:52:35.536Z,1024.75
2016-08-31T00:53:35.555Z,1024.73
2016-08-31T00:54:35.588Z,1024.73
2016-08-31T00:55:35.606Z,1024.72
2016-08-31T00:56:35.614Z,1024.71
2016-08-31T00:57:35.646Z,1024.69
2016-08-31T00:58:35.659Z,1024.71
2016-08-31T00:59:35.687Z,1024.69
2016-08-31T01:00:35.710Z,1024.69
2016-08-31T01:01:35.723Z,1024.7
2016-08-31T01:02:35.745Z,1024.67
2016-08-31T01:03:35.767Z,1024.65
2016-08-31T01:04:35.786Z,1024.66
2016-08-31T01:05:35.808Z,1024.66
2016-08-31T01:06:35.826Z,1024.7
2016-08-31T01:07:35.847Z,1024.68
2016-08-31T01:08:35.867Z,1024.71
2016-08-31T01:09:35.885Z,1024.67
2016-08-31T01:10:35.906Z,1024.7
2016-08-31T01:11:35.928Z,1024.71
2016-08-31T01:12:35.945Z,1024.69
2016-08-31T01:13:35.967Z,1024.72
2016-08-31T01:14:35.987Z,1024.76
2016-08-31T01:15:36.018Z,1024.77
2016-08-31T01:16:36.030Z,1024.78
2016-08-31T01:17:36.057Z,1024.74
2016-08-31T01:18:36.077Z,1024.75
2016-08-31T01:19:36.096Z,1024.72
2016-08-31T01:20:36.105Z,1024.71
2016-08-31T01:21:36.136Z,1024.73
2016-08-31T01:22:36.157Z,1024.77
2016-08-31T01:23:36.174Z,1024.68
2016-08-31T01:24:36.193Z,1024.69
2016-08-31T01:25:36.217Z,1024.69
2016-08-31T01:26:36.236Z,1024.66
2016-08-31T01:27:36.257Z,1024.69
2016-08-31T01:28:36.270Z,1024.69
2016-08-31T01:29:36.297Z,1024.72
2016-08-31T01:30:36.325Z,1024.68
2016-08-31T01:31:36.333Z,1024.65
2016-08-31T01:32:36.355Z,1024.67
2016-08-31T01:33:36.377Z,1024.69
2016-08-31T01:34:36.399Z,1024.71
2016-08-31T01:35:36.417Z,1024.68
2016-08-31T01:36:36.439Z,1024.71
2016-08-31T01:37:36.458Z,1024.69
2016-08-31T01:38:36.478Z,1024.71
2016-08-31T01:39:36.498Z,1024.66
2016-08-31T01:40:36.517Z,1024.66
2016-08-31T01:41:36.549Z,1024.64
2016-08-31T01:42:36.558Z,1024.64
2016-08-31T01:43:36.675Z,1024.64
2016-08-31T01:44:36.597Z,1024.62
2016-08-31T01:45:36.616Z,1024.6
2016-08-31T01:46:36.639Z,1024.59
2016-08-31T01:47:36.656Z,1024.58
2016-08-31T01:48:36.686Z,1024.54
2016-08-31T01:49:36.696Z,1024.57
2016-08-31T01:50:36.715Z,1024.58
2016-08-31T01:51:36.741Z,1024.6
2016-08-31T01:52:36.755Z,1024.59
2016-08-31T01:53:36.786Z,1024.57
2016-08-31T01:54:36.801Z,1024.57
2016-08-31T01:55:36.819Z,1024.58
2016-08-31T01:56:36.845Z,1024.54
2016-08-31T01:57:36.867Z,1024.5
2016-08-31T01:58:36.885Z,1024.51
2016-08-31T01:59:36.901Z,1024.49
2016-08-31T02:00:36.919Z,1024.49
2016-08-31T02:01:36.940Z,1024.47
2016-08-31T02:02:36.961Z,1024.46
2016-08-31T02:03:36.983Z,1024.45
2016-08-31T02:04:37.007Z,1024.47
2016-08-31T02:05:37.026Z,1024.42
2016-08-31T02:06:37.045Z,1024.42
2016-08-31T02:07:37.066Z,1024.41
2016-08-31T02:08:37.081Z,1024.42
2016-08-31T02:09:37.107Z,1024.42
2016-08-31T02:10:37.121Z,1024.4
2016-08-31T02:11:37.147Z,1024.42
2016-08-31T02:12:37.165Z,1024.41
2016-08-31T02:13:37.235Z,1024.41
2016-08-31T02:14:37.206Z,1024.36
2016-08-31T02:15:37.228Z,1024.38
2016-08-31T02:16:37.244Z,1024.38
2016-08-31T02:17:37.262Z,1024.37
2016-08-31T02:18:37.286Z,1024.36
2016-08-31T02:19:37.301Z,1024.34
2016-08-31T02:20:37.323Z,1024.31
2016-08-31T02:21:37.347Z,1024.31
2016-08-31T02:22:37.367Z,1024.26
2016-08-31T02:23:37.385Z,1024.24
2016-08-31T02:24:37.407Z,1024.24
2016-08-31T02:25:37.424Z,1024.27
2016-08-31T02:26:37.446Z,1024.24
2016-08-31T02:27:37.469Z,1024.26
2016-08-31T02:28:37.485Z,1024.28
2016-08-31T02:29:37.503Z,1024.28
2016-08-31T02:30:37.519Z,1024.26
2016-08-31T02:31:37.545Z,1024.28
2016-08-31T02:32:37.564Z,1024.24
2016-08-31T02:33:37.590Z,1024.25
2016-08-31T02:34:37.601Z,1024.18
2016-08-31T02:35:37.625Z,1024.18
2016-08-31T02:36:37.653Z,1024.17
2016-08-31T02:37:37.679Z,1024.15
2016-08-31T02:38:37.683Z,1024.15
2016-08-31T02:39:37.707Z,1024.16
2016-08-31T02:40:37.724Z,1024.08
2016-08-31T02:41:37.746Z,1024.14
2016-08-31T02:42:37.764Z,1024.16
2016-08-31T02:43:37.788Z,1024.13
2016-08-31T02:44:37.807Z,1024.1
2016-08-31T02:45:37.840Z,1024.12
2016-08-31T02:46:37.847Z,1024.11
2016-08-31T02:47:37.866Z,1024.09
2016-08-31T02:48:37.882Z,1024.08
2016-08-31T02:49:37.907Z,1024.05
2016-08-31T02:50:37.926Z,1024.03
2016-08-31T02:51:37.948Z,1024.04
2016-08-31T02:52:37.963Z,1024.04
2016-08-31T02:53:37.981Z,1024
2016-08-31T02:54:38.006Z,1023.97
2016-08-31T02:55:38.022Z,1023.97
2016-08-31T02:56:38.040Z,1023.95
2016-08-31T02:57:38.065Z,1023.98
2016-08-31T02:58:39.070Z,1023.93
2016-08-31T02:59:38.106Z,1023.97
2016-08-31T03:00:38.125Z,1023.94
2016-08-31T03:01:38.148Z,1023.93
2016-08-31T03:02:38.168Z,1023.92
2016-08-31T03:03:38.183Z,1023.95
2016-08-31T03:04:38.204Z,1023.9
2016-08-31T03:05:38.231Z,1023.91
2016-08-31T03:06:38.245Z,1023.9
2016-08-31T03:07:38.263Z,1023.9
2016-08-31T03:08:38.287Z,1023.92
2016-08-31T03:09:38.305Z,1023.96
2016-08-31T03:10:38.376Z,1023.95
2016-08-31T03:11:38.345Z,1023.92
2016-08-31T03:12:38.366Z,1023.89
2016-08-31T03:13:38.439Z,1023.88
2016-08-31T03:14:38.408Z,1023.86
2016-08-31T03:15:38.426Z,1023.88
2016-08-31T03:16:38.442Z,1023.88
2016-08-31T03:17:38.467Z,1023.91
2016-08-31T03:18:38.486Z,1023.89
2016-08-31T03:19:38.506Z,1023.85
2016-08-31T03:20:38.528Z,1023.88
2016-08-31T03:21:38.545Z,1023.87
2016-08-31T03:22:38.565Z,1023.85
2016-08-31T03:23:38.603Z,1023.84
2016-08-31T03:24:38.606Z,1023.82
2016-08-31T03:25:38.615Z,1023.89
2016-08-31T03:26:38.647Z,1023.9
2016-08-31T03:27:38.660Z,1023.85
2016-08-31T03:28:38.678Z,1023.82
2016-08-31T03:29:38.704Z,1023.81
2016-08-31T03:30:38.729Z,1023.79
2016-08-31T03:31:38.740Z,1023.81
2016-08-31T03:32:38.771Z,1023.81
2016-08-31T03:33:38.786Z,1023.79
2016-08-31T03:34:38.803Z,1023.8
2016-08-31T03:35:38.816Z,1023.82
2016-08-31T03:36:38.894Z,1023.8
2016-08-31T03:37:38.856Z,1023.79
2016-08-31T03:38:38.878Z,1023.82
2016-08-31T03:39:38.895Z,1023.82
2016-08-31T03:40:38.920Z,1023.8
2016-08-31T03:41:38.947Z,1023.79
2016-08-31T03:42:38.957Z,1023.77
2016-08-31T03:43:38.978Z,1023.73
2016-08-31T03:44:38.995Z,1023.79
2016-08-31T03:45:39.016Z,1023.77
2016-08-31T03:46:39.035Z,1023.76
2016-08-31T03:47:39.056Z,1023.72
2016-08-31T03:48:39.078Z,1023.75
2016-08-31T03:49:39.095Z,1023.75
2016-08-31T03:50:39.129Z,1023.77
2016-08-31T03:51:39.137Z,1023.76
2016-08-31T03:52:39.155Z,1023.78
2016-08-31T03:53:39.177Z,1023.8
2016-08-31T03:54:39.193Z,1023.77
2016-08-31T03:55:39.216Z,1023.76
2016-08-31T03:56:39.237Z,1023.81
2016-08-31T03:57:39.260Z,1023.77
2016-08-31T03:58:39.275Z,1023.75
2016-08-31T03:59:39.292Z,1023.81
2016-08-31T04:00:39.315Z,1023.76
2016-08-31T04:01:39.338Z,1023.74
2016-08-31T04:02:39.352Z,1023.71
2016-08-31T04:03:39.370Z,1023.72
2016-08-31T04:04:39.397Z,1023.72
2016-08-31T04:05:39.409Z,1023.74
2016-08-31T04:06:39.435Z,1023.71
2016-08-31T04:07:39.450Z,1023.71
2016-08-31T04:08:39.478Z,1023.67
2016-08-31T04:09:39.486Z,1023.68
2016-08-31T04:10:39.507Z,1023.64
2016-08-31T04:11:39.527Z,1023.62
2016-08-31T04:12:39.547Z,1023.61
2016-08-31T04:13:39.568Z,1023.62
2016-08-31T04:14:39.588Z,1023.6
2016-08-31T04:15:39.606Z,1023.6
2016-08-31T04:16:39.630Z,1023.59
2016-08-31T04:17:39.646Z,1023.62
2016-08-31T04:18:39.668Z,1023.61
2016-08-31T04:19:39.688Z,1023.59
2016-08-31T04:20:39.706Z,1023.56
2016-08-31T04:21:39.728Z,1023.64
2016-08-31T04:22:39.746Z,1023.61
2016-08-31T04:23:39.761Z,1023.58
2016-08-31T04:24:39.784Z,1023.57
2016-08-31T04:25:39.807Z,1023.58
2016-08-31T04:26:39.819Z,1023.62
2016-08-31T04:27:39.847Z,1023.6
2016-08-31T04:28:39.864Z,1023.59
2016-08-31T04:29:39.879Z,1023.59
2016-08-31T04:30:39.905Z,1023.6
2016-08-31T04:31:39.919Z,1023.6
2016-08-31T04:32:39.951Z,1023.56
2016-08-31T04:33:39.962Z,1023.62
2016-08-31T04:34:39.977Z,1023.55
2016-08-31T04:35:39.999Z,1023.6
2016-08-31T04:36:40.019Z,1023.56
2016-08-31T04:37:40.035Z,1023.57
2016-08-31T04:38:40.055Z,1023.58
2016-08-31T04:39:40.281Z,1023.59
2016-08-31T04:40:40.097Z,1023.58
2016-08-31T04:41:40.116Z,1023.6
2016-08-31T04:42:40.141Z,1023.6
2016-08-31T04:43:40.158Z,1023.58
2016-08-31T04:44:40.178Z,1023.59
2016-08-31T04:45:40.199Z,1023.58
2016-08-31T04:46:40.212Z,1023.63
2016-08-31T04:47:40.241Z,1023.6
2016-08-31T04:48:40.272Z,1023.61
2016-08-31T04:49:40.277Z,1023.57
2016-08-31T04:50:40.302Z,1023.59
2016-08-31T04:51:40.317Z,1023.59
2016-08-31T04:52:40.334Z,1023.58
2016-08-31T04:53:40.355Z,1023.58
2016-08-31T04:54:40.375Z,1023.56
2016-08-31T04:55:40.394Z,1023.56
2016-08-31T04:56:40.416Z,1023.58
2016-08-31T04:57:40.432Z,1023.55
2016-08-31T04:58:40.458Z,1023.57
2016-08-31T04:59:40.472Z,1023.53
2016-08-31T05:00:40.491Z,1023.52
2016-08-31T05:01:40.514Z,1023.53
2016-08-31T05:02:40.530Z,1023.53
2016-08-31T05:03:40.622Z,1023.56
2016-08-31T05:04:40.583Z,1023.52
2016-08-31T05:05:40.598Z,1023.57
2016-08-31T05:06:40.611Z,1023.55
2016-08-31T05:07:40.636Z,1023.57
2016-08-31T05:08:40.657Z,1023.52
2016-08-31T05:09:40.674Z,1023.53
2016-08-31T05:10:40.688Z,1023.54
2016-08-31T05:11:40.710Z,1023.56
2016-08-31T05:12:40.733Z,1023.5
2016-08-31T05:13:40.808Z,1023.54
2016-08-31T05:14:40.767Z,1023.49
2016-08-31T05:15:40.786Z,1023.47
2016-08-31T05:16:40.814Z,1023.48
2016-08-31T05:17:40.825Z,1023.47
2016-08-31T05:18:40.845Z,1023.46
2016-08-31T05:19:40.865Z,1023.44
2016-08-31T05:20:40.885Z,1023.44
2016-08-31T05:21:40.905Z,1023.46
2016-08-31T05:22:40.926Z,1023.41
2016-08-31T05:23:40.943Z,1023.4
2016-08-31T05:24:40.969Z,1023.44
2016-08-31T05:25:40.990Z,1023.41
2016-08-31T05:26:41.011Z,1023.45
2016-08-31T05:27:41.034Z,1023.48
2016-08-31T05:28:41.044Z,1023.47
2016-08-31T05:29:41.113Z,1023.43
2016-08-31T05:30:41.081Z,1023.44
2016-08-31T05:31:41.105Z,1023.43
2016-08-31T05:32:41.323Z,1023.4
2016-08-31T05:33:41.146Z,1023.42
2016-08-31T05:34:41.162Z,1023.48
2016-08-31T05:35:41.185Z,1023.47
2016-08-31T05:36:41.215Z,1023.45
2016-08-31T05:37:41.224Z,1023.43
2016-08-31T05:38:41.242Z,1023.45
2016-08-31T05:39:41.262Z,1023.46
2016-08-31T05:40:41.304Z,1023.45
2016-08-31T05:41:41.302Z,1023.52
2016-08-31T05:42:41.326Z,1023.56
2016-08-31T05:43:41.339Z,1023.55
2016-08-31T05:44:41.369Z,1023.58
2016-08-31T05:45:41.384Z,1023.56
2016-08-31T05:46:41.403Z,1023.54
2016-08-31T05:47:41.425Z,1023.53
2016-08-31T05:48:41.450Z,1023.53
2016-08-31T05:49:41.467Z,1023.48
2016-08-31T05:50:41.496Z,1023.54
2016-08-31T05:51:41.515Z,1023.56
2016-08-31T05:52:41.534Z,1023.55
2016-08-31T05:53:41.554Z,1023.54
2016-08-31T05:54:41.614Z,1023.52
2016-08-31T05:55:41.606Z,1023.52
2016-08-31T05:56:41.634Z,1023.52
2016-08-31T05:57:41.659Z,1023.54
2016-08-31T05:58:41.686Z,1023.54
2016-08-31T05:59:41.700Z,1023.58
2016-08-31T06:00:41.726Z,1023.58
2016-08-31T06:01:41.754Z,1023.57
2016-08-31T06:02:41.774Z,1023.54
2016-08-31T06:03:41.805Z,1023.51
2016-08-31T06:04:41.834Z,1023.53
2016-08-31T06:05:42.059Z,1023.51
2016-08-31T06:06:41.886Z,1023.51
2016-08-31T06:07:41.906Z,1023.52
2016-08-31T06:08:41.934Z,1023.48
2016-08-31T06:09:41.966Z,1023.53
2016-08-31T06:10:41.985Z,1023.49
2016-08-31T06:11:42.016Z,1023.46
2016-08-31T06:12:42.047Z,1023.5
2016-08-31T06:13:42.075Z,1023.49
2016-08-31T06:14:42.105Z,1023.54
2016-08-31T06:15:42.129Z,1023.5
2016-08-31T06:16:42.164Z,1023.5
2016-08-31T06:17:42.183Z,1023.5
2016-08-31T06:18:42.214Z,1023.51
2016-08-31T06:19:42.243Z,1023.49
2016-08-31T06:20:42.265Z,1023.47
2016-08-31T06:21:42.294Z,1023.45
2016-08-31T06:22:42.327Z,1023.48
2016-08-31T06:23:42.355Z,1023.5
2016-08-31T06:24:42.388Z,1023.48
2016-08-31T06:25:42.408Z,1023.51
2016-08-31T06:26:42.442Z,1023.52
2016-08-31T06:27:42.473Z,1023.53
2016-08-31T06:28:42.496Z,1023.51
2016-08-31T06:29:42.523Z,1023.55
2016-08-31T06:30:42.567Z,1023.55
2016-08-31T06:31:42.587Z,1023.53
2016-08-31T06:32:42.618Z,1023.58
2016-08-31T06:33:42.651Z,1023.59
2016-08-31T06:34:42.676Z,1023.57
2016-08-31T06:35:42.707Z,1023.53
2016-08-31T06:36:42.733Z,1023.54
2016-08-31T06:37:42.816Z,1023.54
2016-08-31T06:38:42.794Z,1023.55
2016-08-31T06:39:42.821Z,1023.56
2016-08-31T06:40:42.853Z,1023.57
2016-08-31T06:41:42.881Z,1023.56
2016-08-31T06:42:42.910Z,1023.54
2016-08-31T06:43:42.943Z,1023.55
2016-08-31T06:44:42.986Z,1023.56
2016-08-31T06:45:43.004Z,1023.57
2016-08-31T06:46:43.035Z,1023.56
2016-08-31T06:47:43.060Z,1023.54
2016-08-31T06:48:43.093Z,1023.53
2016-08-31T06:49:43.125Z,1023.51
2016-08-31T06:50:43.149Z,1023.53
2016-08-31T06:51:43.183Z,1023.48
2016-08-31T06:52:43.215Z,1023.5
2016-08-31T06:53:43.244Z,1023.54
2016-08-31T06:54:43.273Z,1023.49
2016-08-31T06:55:43.434Z,1023.53
2016-08-31T06:56:43.464Z,1023.56
2016-08-31T06:57:43.363Z,1023.53
2016-08-31T06:58:43.517Z,1023.51
2016-08-31T06:59:43.518Z,1023.54
2016-08-31T07:00:43.664Z,1023.54
2016-08-31T07:01:43.487Z,1023.51
2016-08-31T07:02:43.524Z,1023.49
2016-08-31T07:03:43.551Z,1023.46
2016-08-31T07:04:43.583Z,1023.51
2016-08-31T07:05:43.609Z,1023.45
2016-08-31T07:06:43.643Z,1023.41
2016-08-31T07:07:43.674Z,1023.44
2016-08-31T07:08:43.706Z,1023.43
2016-08-31T07:09:43.732Z,1023.41
2016-08-31T07:10:43.763Z,1023.42
2016-08-31T07:11:43.807Z,1023.43
2016-08-31T07:12:43.823Z,1023.42
2016-08-31T07:13:43.853Z,1023.46
2016-08-31T07:14:43.888Z,1023.44
2016-08-31T07:15:43.927Z,1023.44
2016-08-31T07:16:43.952Z,1023.44
2016-08-31T07:17:43.983Z,1023.45
2016-08-31T07:18:44.021Z,1023.41
2016-08-31T07:19:44.051Z,1023.4
2016-08-31T07:20:44.073Z,1023.37
2016-08-31T07:21:44.104Z,1023.38
2016-08-31T07:22:44.139Z,1023.39
2016-08-31T07:23:44.169Z,1023.37
2016-08-31T07:24:44.203Z,1023.43
2016-08-31T07:25:44.234Z,1023.39
2016-08-31T07:26:44.263Z,1023.37
2016-08-31T07:27:44.295Z,1023.36
2016-08-31T07:28:44.325Z,1023.38
2016-08-31T07:29:44.353Z,1023.34
2016-08-31T07:30:44.386Z,1023.35
2016-08-31T07:31:44.421Z,1023.36
2016-08-31T07:32:44.454Z,1023.34
2016-08-31T07:33:44.480Z,1023.31
2016-08-31T07:34:44.517Z,1023.31
2016-08-31T07:35:44.612Z,1023.31
2016-08-31T07:36:44.574Z,1023.26
2016-08-31T07:37:44.610Z,1023.29
2016-08-31T07:38:44.642Z,1023.25
2016-08-31T07:39:44.668Z,1023.26
2016-08-31T07:40:44.708Z,1023.25
2016-08-31T07:41:44.733Z,1023.28
2016-08-31T07:42:44.766Z,1023.28
2016-08-31T07:43:44.797Z,1023.31
2016-08-31T07:44:44.832Z,1023.28
2016-08-31T07:45:44.861Z,1023.25
2016-08-31T07:46:44.895Z,1023.25
2016-08-31T07:47:44.919Z,1023.21
2016-08-31T07:48:44.951Z,1023.16
2016-08-31T07:49:44.987Z,1023.12
2016-08-31T07:50:45.017Z,1023.04
2016-08-31T07:51:45.043Z,1023.05
2016-08-31T07:52:45.071Z,1023.04
2016-08-31T07:53:45.105Z,1023.06
2016-08-31T07:54:45.141Z,1023.04
2016-08-31T07:55:45.220Z,1023.06
2016-08-31T07:56:45.189Z,1023.02
2016-08-31T07:57:45.218Z,1023.04
2016-08-31T07:58:45.248Z,1022.98
2016-08-31T07:59:45.278Z,1023
2016-08-31T08:00:45.311Z,1022.99
2016-08-31T08:01:45.339Z,1022.94
2016-08-31T08:02:45.362Z,1022.93
2016-08-31T08:03:45.395Z,1022.9
2016-08-31T08:04:45.419Z,1022.93
2016-08-31T08:05:45.989Z,1022.92
2016-08-31T08:06:45.479Z,1022.89
2016-08-31T08:07:45.500Z,1022.9
2016-08-31T08:08:45.541Z,1022.92
2016-08-31T08:09:45.562Z,1022.89
2016-08-31T08:10:45.585Z,1022.93
2016-08-31T08:11:45.615Z,1022.89
2016-08-31T08:12:45.641Z,1022.86
2016-08-31T08:13:45.661Z,1022.86
2016-08-31T08:14:45.693Z,1022.84
2016-08-31T08:15:45.712Z,1022.83
2016-08-31T08:16:45.742Z,1022.8
2016-08-31T08:17:45.773Z,1022.76
2016-08-31T08:18:45.799Z,1022.8
2016-08-31T08:19:45.824Z,1022.79
2016-08-31T08:20:45.857Z,1022.77
2016-08-31T08:21:45.874Z,1022.77
2016-08-31T08:22:45.903Z,1022.79
2016-08-31T08:23:45.932Z,1022.76
2016-08-31T08:24:45.952Z,1022.76
2016-08-31T08:25:45.982Z,1022.7
2016-08-31T08:26:46.005Z,1022.68
2016-08-31T08:27:46.029Z,1022.69
2016-08-31T08:28:46.063Z,1022.65
2016-08-31T08:29:46.083Z,1022.63
2016-08-31T08:30:46.108Z,1022.64
2016-08-31T08:31:46.135Z,1022.62
2016-08-31T08:32:46.164Z,1022.61
2016-08-31T08:33:46.186Z,1022.58
2016-08-31T08:34:46.213Z,1022.65
2016-08-31T08:35:46.233Z,1022.6
2016-08-31T08:36:46.258Z,1022.62
2016-08-31T08:37:46.293Z,1022.61
2016-08-31T08:38:46.313Z,1022.63
2016-08-31T08:39:46.344Z,1022.59
2016-08-31T08:40:46.364Z,1022.57
2016-08-31T08:41:46.388Z,1022.54
2016-08-31T08:42:46.422Z,1022.59
2016-08-31T08:43:46.447Z,1022.54
2016-08-31T08:44:46.489Z,1022.58
2016-08-31T08:45:46.492Z,1022.53
2016-08-31T08:46:46.533Z,1022.55
2016-08-31T08:47:46.540Z,1022.5
2016-08-31T08:48:46.624Z,1022.51
2016-08-31T08:49:46.592Z,1022.48
2016-08-31T08:50:46.624Z,1022.49
2016-08-31T08:51:46.651Z,1022.47
2016-08-31T08:52:46.671Z,1022.47
2016-08-31T08:53:46.702Z,1022.49
2016-08-31T08:54:46.730Z,1022.48
2016-08-31T08:55:46.884Z,1022.49
2016-08-31T08:56:46.774Z,1022.51
2016-08-31T08:57:46.798Z,1022.47
2016-08-31T08:58:46.824Z,1022.47
2016-08-31T08:59:46.849Z,1022.47
2016-08-31T09:00:46.877Z,1022.49
2016-08-31T09:01:46.898Z,1022.45
2016-08-31T09:02:46.925Z,1022.46
2016-08-31T09:03:46.953Z,1022.42
2016-08-31T09:04:46.983Z,1022.44
2016-08-31T09:05:47.015Z,1022.39
2016-08-31T09:06:47.086Z,1022.43
2016-08-31T09:07:47.059Z,1022.38
2016-08-31T09:08:47.182Z,1022.41
2016-08-31T09:09:47.116Z,1022.4
2016-08-31T09:10:47.139Z,1022.38
2016-08-31T09:11:47.152Z,1022.36
2016-08-31T09:12:47.184Z,1022.42
2016-08-31T09:13:47.267Z,1022.38
2016-08-31T09:14:47.234Z,1022.39
2016-08-31T09:15:47.270Z,1022.36
2016-08-31T09:16:47.290Z,1022.39
2016-08-31T09:17:47.329Z,1022.4
2016-08-31T09:18:47.332Z,1022.36
2016-08-31T09:19:47.466Z,1022.37
2016-08-31T09:20:47.387Z,1022.34
2016-08-31T09:21:47.462Z,1022.37
2016-08-31T09:22:47.441Z,1022.32
2016-08-31T09:23:47.463Z,1022.32
2016-08-31T09:24:47.493Z,1022.27
2016-08-31T09:25:47.527Z,1022.33
2016-08-31T09:26:47.542Z,1022.3
2016-08-31T09:27:47.567Z,1022.26
2016-08-31T09:28:47.595Z,1022.26
2016-08-31T09:29:47.625Z,1022.26
2016-08-31T09:30:47.652Z,1022.27
2016-08-31T09:31:47.676Z,1022.26
2016-08-31T09:32:47.703Z,1022.24
2016-08-31T09:33:47.722Z,1022.26
2016-08-31T09:34:47.753Z,1022.25
2016-08-31T09:35:47.782Z,1022.25
2016-08-31T09:36:47.802Z,1022.19
2016-08-31T09:37:47.831Z,1022.17
2016-08-31T09:38:47.862Z,1022.16
2016-08-31T09:39:47.881Z,1022.16
2016-08-31T09:40:47.909Z,1022.14
2016-08-31T09:41:47.937Z,1022.15
2016-08-31T09:42:47.960Z,1022.21
2016-08-31T09:43:47.988Z,1022.22
2016-08-31T09:44:48.022Z,1022.19
2016-08-31T09:45:48.049Z,1022.2
2016-08-31T09:46:48.066Z,1022.17
2016-08-31T09:47:48.101Z,1022.17
2016-08-31T09:48:48.123Z,1022.15
2016-08-31T09:49:48.156Z,1022.19
2016-08-31T09:50:48.171Z,1022.17
2016-08-31T09:51:48.202Z,1022.19
2016-08-31T09:52:48.232Z,1022.15
2016-08-31T09:53:48.252Z,1022.13
2016-08-31T09:54:48.282Z,1022.08
2016-08-31T09:55:48.313Z,1022.11
2016-08-31T09:56:48.330Z,1022.1
2016-08-31T09:57:48.368Z,1022.13
2016-08-31T09:58:48.389Z,1022.14
2016-08-31T09:59:48.412Z,1022.11
2016-08-31T10:00:48.447Z,1022.11
2016-08-31T10:01:48.511Z,1022.11
2016-08-31T10:02:48.494Z,1022.07
2016-08-31T10:03:48.523Z,1022.06
2016-08-31T10:04:48.551Z,1022.07
2016-08-31T10:05:48.570Z,1022.05
2016-08-31T10:06:48.597Z,1022.05
2016-08-31T10:07:48.636Z,1022.06
2016-08-31T10:08:48.657Z,1022.06
2016-08-31T10:09:48.682Z,1022.06
2016-08-31T10:10:48.713Z,1022.04
2016-08-31T10:11:48.734Z,1022.02
2016-08-31T10:12:48.777Z,1022.04
2016-08-31T10:13:48.782Z,1022.02
2016-08-31T10:14:48.816Z,1021.98
2016-08-31T10:15:48.844Z,1021.94
2016-08-31T10:16:48.866Z,1021.95
2016-08-31T10:17:48.895Z,1021.92
2016-08-31T10:18:48.919Z,1021.99
2016-08-31T10:19:48.947Z,1022
2016-08-31T10:20:48.977Z,1021.97
2016-08-31T10:21:49.132Z,1021.96
2016-08-31T10:22:49.024Z,1021.97
2016-08-31T10:23:49.063Z,1021.92
2016-08-31T10:24:49.089Z,1021.91
2016-08-31T10:25:49.155Z,1021.88
2016-08-31T10:26:49.134Z,1021.93
2016-08-31T10:27:49.161Z,1021.95
2016-08-31T10:28:49.191Z,1021.94
2016-08-31T10:29:49.209Z,1021.93
2016-08-31T10:30:49.238Z,1021.95
2016-08-31T10:31:49.261Z,1021.95
2016-08-31T10:32:49.301Z,1021.94
2016-08-31T10:33:49.319Z,1021.97
2016-08-31T10:34:49.352Z,1021.93
2016-08-31T10:35:49.372Z,1021.89
2016-08-31T10:36:49.397Z,1021.92
2016-08-31T10:37:49.429Z,1021.85
2016-08-31T10:38:49.461Z,1021.87
2016-08-31T10:39:49.475Z,1021.82
2016-08-31T10:40:49.512Z,1021.85
2016-08-31T10:41:49.529Z,1021.83
2016-08-31T10:42:49.555Z,1021.84
2016-08-31T10:43:49.583Z,1021.8
2016-08-31T10:44:49.613Z,1021.78
2016-08-31T10:45:49.640Z,1021.77
2016-08-31T10:46:49.665Z,1021.75
2016-08-31T10:47:49.688Z,1021.73
2016-08-31T10:48:49.726Z,1021.71
2016-08-31T10:49:49.743Z,1021.75
2016-08-31T10:50:49.769Z,1021.75
2016-08-31T10:51:49.809Z,1021.75
2016-08-31T10:52:49.818Z,1021.73
2016-08-31T10:53:49.848Z,1021.73
2016-08-31T10:54:49.872Z,1021.72
2016-08-31T10:55:49.903Z,1021.73
2016-08-31T10:56:49.931Z,1021.66
2016-08-31T10:57:49.955Z,1021.71
2016-08-31T10:58:49.981Z,1021.68
2016-08-31T10:59:50.009Z,1021.63
2016-08-31T11:00:50.036Z,1021.71
2016-08-31T11:01:50.076Z,1021.72
2016-08-31T11:02:50.086Z,1021.66
2016-08-31T11:03:50.121Z,1021.63
2016-08-31T11:04:50.142Z,1021.62
2016-08-31T11:05:50.175Z,1021.6
2016-08-31T11:06:50.202Z,1021.59
2016-08-31T11:07:50.229Z,1021.57
2016-08-31T11:08:50.459Z,1021.52
2016-08-31T11:09:50.452Z,1021.54
2016-08-31T11:10:50.455Z,1021.53
2016-08-31T11:11:50.487Z,1021.49
2016-08-31T11:12:50.465Z,1021.48
2016-08-31T11:13:50.497Z,1021.44
2016-08-31T11:14:50.614Z,1021.46
2016-08-31T11:15:50.443Z,1021.42
2016-08-31T11:16:50.522Z,1021.42
2016-08-31T11:17:50.546Z,1021.46
2016-08-31T11:18:50.523Z,1021.44
2016-08-31T11:19:50.552Z,1021.43
2016-08-31T11:20:50.588Z,1021.43
2016-08-31T11:21:50.602Z,1021.38
2016-08-31T11:22:50.632Z,1021.43
2016-08-31T11:23:50.659Z,1021.39
2016-08-31T11:24:50.685Z,1021.36
2016-08-31T11:25:50.720Z,1021.37
2016-08-31T11:26:50.736Z,1021.39
2016-08-31T11:27:50.830Z,1021.43
2016-08-31T11:28:50.795Z,1021.4
2016-08-31T11:29:50.825Z,1021.39
2016-08-31T11:30:50.844Z,1021.41
2016-08-31T11:31:50.872Z,1021.41
2016-08-31T11:32:50.893Z,1021.35
2016-08-31T11:33:50.925Z,1021.41
2016-08-31T11:34:50.953Z,1021.37
2016-08-31T11:35:50.985Z,1021.33
2016-08-31T11:36:51.013Z,1021.28
2016-08-31T11:37:51.044Z,1021.3
2016-08-31T11:38:51.064Z,1021.3
2016-08-31T11:39:51.090Z,1021.28
2016-08-31T11:40:51.122Z,1021.27
2016-08-31T11:41:51.143Z,1021.24
2016-08-31T11:42:51.176Z,1021.26
2016-08-31T11:43:51.195Z,1021.26
2016-08-31T11:44:51.225Z,1021.25
2016-08-31T11:45:51.247Z,1021.25
2016-08-31T11:46:51.283Z,1021.22
2016-08-31T11:47:51.304Z,1021.17
2016-08-31T11:48:51.332Z,1021.16
2016-08-31T11:49:51.363Z,1021.14
2016-08-31T11:50:51.393Z,1021.15
2016-08-31T11:51:51.417Z,1021.11
2016-08-31T11:52:51.439Z,1021.11
2016-08-31T11:53:51.467Z,1021.11
2016-08-31T11:54:51.494Z,1021.08
2016-08-31T11:55:51.525Z,1021.09
2016-08-31T11:56:51.550Z,1021.1
2016-08-31T11:57:51.583Z,1021.1
2016-08-31T11:58:51.606Z,1021.02
2016-08-31T11:59:51.634Z,1021.05
2016-08-31T12:00:51.662Z,1021.03
2016-08-31T12:01:51.687Z,1021.02
2016-08-31T12:02:51.713Z,1021
2016-08-31T12:03:51.740Z,1020.97
2016-08-31T12:04:51.769Z,1020.95
2016-08-31T12:05:51.794Z,1020.96
2016-08-31T12:06:51.819Z,1020.89
2016-08-31T12:07:51.852Z,1020.94